sensor_id;sensor_type;location;lat;lon;timestamp;pressure;altitude;pressure_sealevel;temperature;humidity
54369;BME280;40266;52.434;17.056;2023-03-14T00:02:05;98609.59;;;11.17;88.20
54369;BME280;40266;52.434;17.056;2023-03-14T00:04:49;98608.20;;;11.16;88.15
54369;BME280;40266;52.434;17.056;2023-03-14T00:07:37;98602.54;;;11.14;88.25
54369;BME280;40266;52.434;17.056;2023-03-14T00:10:21;98606.42;;;11.14;88.22
54369;BME280;40266;52.434;17.056;2023-03-14T00:13:04;98602.05;;;11.14;88.35
54369;BME280;40266;52.434;17.056;2023-03-14T00:15:48;98599.44;;;11.14;88.49
54369;BME280;40266;52.434;17.056;2023-03-14T00:18:32;98601.34;;;11.14;88.44
54369;BME280;40266;52.434;17.056;2023-03-14T00:21:18;98601.86;;;11.14;88.49
54369;BME280;40266;52.434;17.056;2023-03-14T00:24:02;98607.21;;;11.15;88.48
54369;BME280;40266;52.434;17.056;2023-03-14T00:26:46;98603.68;;;11.16;88.72
54369;BME280;40266;52.434;17.056;2023-03-14T00:29:29;98596.61;;;11.17;88.67
54369;BME280;40266;52.434;17.056;2023-03-14T00:32:13;98592.46;;;11.20;88.69
54369;BME280;40266;52.434;17.056;2023-03-14T00:34:56;98585.34;;;11.23;88.75
54369;BME280;40266;52.434;17.056;2023-03-14T00:37:42;98583.06;;;11.26;88.78
54369;BME280;40266;52.434;17.056;2023-03-14T00:40:26;98579.22;;;11.26;88.74
54369;BME280;40266;52.434;17.056;2023-03-14T00:43:10;98572.31;;;11.25;88.79
54369;BME280;40266;52.434;17.056;2023-03-14T00:45:54;98578.20;;;11.29;88.79
54369;BME280;40266;52.434;17.056;2023-03-14T00:48:38;98574.15;;;11.30;88.77
54369;BME280;40266;52.434;17.056;2023-03-14T00:51:22;98561.56;;;11.33;88.90
54369;BME280;40266;52.434;17.056;2023-03-14T00:54:05;98556.84;;;11.36;88.88
54369;BME280;40266;52.434;17.056;2023-03-14T00:56:48;98554.11;;;11.38;88.91
54369;BME280;40266;52.434;17.056;2023-03-14T00:59:33;98555.98;;;11.39;88.84
54369;BME280;40266;52.434;17.056;2023-03-14T01:02:16;98554.12;;;11.38;88.92
54369;BME280;40266;52.434;17.056;2023-03-14T01:05:00;98553.45;;;11.37;89.14
54369;BME280;40266;52.434;17.056;2023-03-14T01:07:43;98551.41;;;11.39;89.62
54369;BME280;40266;52.434;17.056;2023-03-14T01:10:27;98549.72;;;11.41;89.89
54369;BME280;40266;52.434;17.056;2023-03-14T01:13:11;98548.48;;;11.42;90.24
54369;BME280;40266;52.434;17.056;2023-03-14T01:15:54;98544.02;;;11.44;90.53
54369;BME280;40266;52.434;17.056;2023-03-14T01:18:39;98537.67;;;11.45;91.14
54369;BME280;40266;52.434;17.056;2023-03-14T01:21:31;98534.41;;;11.44;91.73
54369;BME280;40266;52.434;17.056;2023-03-14T01:24:15;98523.88;;;11.41;92.38
54369;BME280;40266;52.434;17.056;2023-03-14T01:26:59;98512.55;;;11.41;92.82
54369;BME280;40266;52.434;17.056;2023-03-14T01:29:43;98502.10;;;11.40;93.31
54369;BME280;40266;52.434;17.056;2023-03-14T01:32:26;98495.06;;;11.38;93.59
54369;BME280;40266;52.434;17.056;2023-03-14T01:35:11;98484.66;;;11.36;94.21
54369;BME280;40266;52.434;17.056;2023-03-14T01:37:54;98473.65;;;11.36;94.44
54369;BME280;40266;52.434;17.056;2023-03-14T01:40:42;98461.41;;;11.36;94.71
54369;BME280;40266;52.434;17.056;2023-03-14T01:43:26;98436.89;;;11.37;94.94
54369;BME280;40266;52.434;17.056;2023-03-14T01:46:20;98420.33;;;11.39;95.21
54369;BME280;40266;52.434;17.056;2023-03-14T01:52:04;98411.20;;;11.43;95.55
54369;BME280;40266;52.434;17.056;2023-03-14T01:54:53;98404.21;;;11.43;95.75
54369;BME280;40266;52.434;17.056;2023-03-14T01:57:53;98399.24;;;11.42;96.16
54369;BME280;40266;52.434;17.056;2023-03-14T02:00:38;98400.11;;;11.38;96.09
54369;BME280;40266;52.434;17.056;2023-03-14T02:03:22;98404.46;;;11.36;96.13
54369;BME280;40266;52.434;17.056;2023-03-14T02:06:08;98436.79;;;11.33;96.17
54369;BME280;40266;52.434;17.056;2023-03-14T02:08:56;98460.05;;;11.29;96.17
54369;BME280;40266;52.434;17.056;2023-03-14T02:11:43;98440.93;;;11.28;96.32
54369;BME280;40266;52.434;17.056;2023-03-14T02:14:46;98413.81;;;11.25;96.53
54369;BME280;40266;52.434;17.056;2023-03-14T02:17:46;98400.14;;;11.26;96.58
54369;BME280;40266;52.434;17.056;2023-03-14T02:30:10;98448.92;;;11.18;97.01
54369;BME280;40266;52.434;17.056;2023-03-14T02:32:58;98448.74;;;11.16;97.26
54369;BME280;40266;52.434;17.056;2023-03-14T02:35:48;98447.11;;;11.14;97.39
54369;BME280;40266;52.434;17.056;2023-03-14T02:38:45;98442.58;;;11.10;97.60
54369;BME280;40266;52.434;17.056;2023-03-14T02:41:32;98440.77;;;11.08;97.57
54369;BME280;40266;52.434;17.056;2023-03-14T02:44:19;98437.48;;;11.05;97.73
54369;BME280;40266;52.434;17.056;2023-03-14T02:47:04;98442.90;;;11.02;97.85
54369;BME280;40266;52.434;17.056;2023-03-14T02:49:48;98438.30;;;10.99;97.91
54369;BME280;40266;52.434;17.056;2023-03-14T02:52:33;98436.51;;;10.97;97.86
54369;BME280;40266;52.434;17.056;2023-03-14T02:55:22;98435.42;;;10.94;97.85
54369;BME280;40266;52.434;17.056;2023-03-14T02:58:10;98429.98;;;10.92;97.97
54369;BME280;40266;52.434;17.056;2023-03-14T03:00:57;98424.25;;;10.88;98.03
54369;BME280;40266;52.434;17.056;2023-03-14T03:03:42;98425.51;;;10.87;98.06
54369;BME280;40266;52.434;17.056;2023-03-14T03:06:25;98430.89;;;10.85;98.07
54369;BME280;40266;52.434;17.056;2023-03-14T03:09:13;98434.87;;;10.82;98.06
54369;BME280;40266;52.434;17.056;2023-03-14T03:11:57;98446.02;;;10.79;98.05
54369;BME280;40266;52.434;17.056;2023-03-14T03:14:41;98443.17;;;10.77;98.00
54369;BME280;40266;52.434;17.056;2023-03-14T03:17:26;98435.58;;;10.72;98.16
54369;BME280;40266;52.434;17.056;2023-03-14T03:20:10;98431.64;;;10.70;98.21
54369;BME280;40266;52.434;17.056;2023-03-14T03:22:55;98430.79;;;10.67;98.10
54369;BME280;40266;52.434;17.056;2023-03-14T03:25:38;98434.27;;;10.64;98.08
54369;BME280;40266;52.434;17.056;2023-03-14T03:28:22;98440.51;;;10.62;98.04
54369;BME280;40266;52.434;17.056;2023-03-14T03:31:09;98435.55;;;10.60;98.02
54369;BME280;40266;52.434;17.056;2023-03-14T03:33:54;98435.33;;;10.57;97.91
54369;BME280;40266;52.434;17.056;2023-03-14T03:36:40;98424.33;;;10.54;97.90
54369;BME280;40266;52.434;17.056;2023-03-14T03:39:24;98415.70;;;10.52;97.79
54369;BME280;40266;52.434;17.056;2023-03-14T03:42:08;98406.60;;;10.49;97.69
54369;BME280;40266;52.434;17.056;2023-03-14T03:44:53;98398.10;;;10.45;97.56
54369;BME280;40266;52.434;17.056;2023-03-14T03:47:38;98407.23;;;10.41;97.45
54369;BME280;40266;52.434;17.056;2023-03-14T03:50:23;98408.14;;;10.37;97.37
54369;BME280;40266;52.434;17.056;2023-03-14T03:53:07;98401.23;;;10.32;97.25
54369;BME280;40266;52.434;17.056;2023-03-14T03:55:52;98381.76;;;10.27;97.30
54369;BME280;40266;52.434;17.056;2023-03-14T03:58:35;98374.00;;;10.22;97.14
54369;BME280;40266;52.434;17.056;2023-03-14T04:01:21;98375.30;;;10.17;96.96
54369;BME280;40266;52.434;17.056;2023-03-14T04:04:06;98369.75;;;10.09;96.82
54369;BME280;40266;52.434;17.056;2023-03-14T04:06:50;98356.81;;;10.03;96.76
54369;BME280;40266;52.434;17.056;2023-03-14T04:09:34;98345.86;;;9.96;96.54
54369;BME280;40266;52.434;17.056;2023-03-14T04:12:45;98351.42;;;9.89;96.31
54369;BME280;40266;52.434;17.056;2023-03-14T04:15:35;98353.79;;;9.84;96.12
54369;BME280;40266;52.434;17.056;2023-03-14T04:18:25;98352.02;;;9.78;95.99
54369;BME280;40266;52.434;17.056;2023-03-14T04:21:10;98348.15;;;9.72;95.91
54369;BME280;40266;52.434;17.056;2023-03-14T04:24:03;98349.35;;;9.65;95.75
54369;BME280;40266;52.434;17.056;2023-03-14T04:26:51;98355.29;;;9.58;95.59
54369;BME280;40266;52.434;17.056;2023-03-14T04:29:35;98359.12;;;9.51;95.44
54369;BME280;40266;52.434;17.056;2023-03-14T04:32:18;98352.44;;;9.45;95.31
54369;BME280;40266;52.434;17.056;2023-03-14T04:35:05;98365.23;;;9.37;95.21
54369;BME280;40266;52.434;17.056;2023-03-14T04:37:50;98368.52;;;9.30;95.11
54369;BME280;40266;52.434;17.056;2023-03-14T04:40:41;98359.80;;;9.23;94.95
54369;BME280;40266;52.434;17.056;2023-03-14T04:43:27;98348.48;;;9.17;94.99
54369;BME280;40266;52.434;17.056;2023-03-14T04:46:17;98341.69;;;9.09;94.82
54369;BME280;40266;52.434;17.056;2023-03-14T04:49:02;98340.55;;;9.03;94.71
54369;BME280;40266;52.434;17.056;2023-03-14T04:51:47;98331.29;;;8.97;94.62
54369;BME280;40266;52.434;17.056;2023-03-14T04:54:31;98323.61;;;8.90;94.62
54369;BME280;40266;52.434;17.056;2023-03-14T04:57:16;98322.61;;;8.85;94.52
54369;BME280;40266;52.434;17.056;2023-03-14T05:00:01;98321.06;;;8.82;94.35
54369;BME280;40266;52.434;17.056;2023-03-14T05:03:18;98320.40;;;8.77;94.39
54369;BME280;40266;52.434;17.056;2023-03-14T05:06:23;98326.26;;;8.71;94.30
54369;BME280;40266;52.434;17.056;2023-03-14T05:09:27;98318.63;;;8.67;94.14
54369;BME280;40266;52.434;17.056;2023-03-14T05:12:31;98328.02;;;8.63;94.14
54369;BME280;40266;52.434;17.056;2023-03-14T05:15:37;98332.66;;;8.61;94.09
54369;BME280;40266;52.434;17.056;2023-03-14T05:18:39;98335.19;;;8.59;94.01
54369;BME280;40266;52.434;17.056;2023-03-14T05:21:42;98334.40;;;8.57;94.03
54369;BME280;40266;52.434;17.056;2023-03-14T05:24:29;98343.51;;;8.56;93.84
54369;BME280;40266;52.434;17.056;2023-03-14T05:27:30;98349.40;;;8.53;93.72
54369;BME280;40266;52.434;17.056;2023-03-14T05:30:22;98344.06;;;8.52;93.71
54369;BME280;40266;52.434;17.056;2023-03-14T05:33:37;98344.80;;;8.51;93.71
54369;BME280;40266;52.434;17.056;2023-03-14T05:36:30;98342.70;;;8.51;93.61
54369;BME280;40266;52.434;17.056;2023-03-14T05:39:24;98343.22;;;8.51;93.44
54369;BME280;40266;52.434;17.056;2023-03-14T05:42:08;98329.56;;;8.53;93.39
54369;BME280;40266;52.434;17.056;2023-03-14T05:45:21;98346.35;;;8.55;93.20
54369;BME280;40266;52.434;17.056;2023-03-14T05:48:38;98342.92;;;8.57;93.27
54369;BME280;40266;52.434;17.056;2023-03-14T05:51:46;98343.52;;;8.59;93.26
54369;BME280;40266;52.434;17.056;2023-03-14T05:54:50;98332.72;;;8.63;93.15
54369;BME280;40266;52.434;17.056;2023-03-14T05:58:11;98331.36;;;8.70;93.00
54369;BME280;40266;52.434;17.056;2023-03-14T06:01:19;98327.55;;;8.77;92.89
54369;BME280;40266;52.434;17.056;2023-03-14T06:04:22;98325.02;;;8.83;92.87
54369;BME280;40266;52.434;17.056;2023-03-14T06:07:16;98327.35;;;8.85;92.72
54369;BME280;40266;52.434;17.056;2023-03-14T06:10:04;98330.19;;;8.88;92.66
54369;BME280;40266;52.434;17.056;2023-03-14T06:12:50;98328.65;;;8.91;92.56
54369;BME280;40266;52.434;17.056;2023-03-14T06:15:38;98325.55;;;8.97;92.53
54369;BME280;40266;52.434;17.056;2023-03-14T06:18:22;98328.37;;;9.03;92.48
54369;BME280;40266;52.434;17.056;2023-03-14T06:21:06;98335.20;;;9.10;92.51
54369;BME280;40266;52.434;17.056;2023-03-14T06:23:51;98332.61;;;9.17;92.47
54369;BME280;40266;52.434;17.056;2023-03-14T06:26:35;98335.95;;;9.23;92.48
54369;BME280;40266;52.434;17.056;2023-03-14T06:29:19;98327.77;;;9.30;92.40
54369;BME280;40266;52.434;17.056;2023-03-14T06:32:06;98333.29;;;9.42;92.16
54369;BME280;40266;52.434;17.056;2023-03-14T06:34:52;98344.21;;;9.53;92.23
54369;BME280;40266;52.434;17.056;2023-03-14T06:37:36;98344.30;;;9.62;91.82
54369;BME280;40266;52.434;17.056;2023-03-14T06:40:20;98331.60;;;9.68;91.76
54369;BME280;40266;52.434;17.056;2023-03-14T06:43:33;98318.05;;;9.81;91.58
54369;BME280;40266;52.434;17.056;2023-03-14T06:46:17;98314.81;;;9.93;91.40
54369;BME280;40266;52.434;17.056;2023-03-14T06:49:01;98317.57;;;10.07;91.26
54369;BME280;40266;52.434;17.056;2023-03-14T06:51:45;98306.55;;;10.20;91.08
54369;BME280;40266;52.434;17.056;2023-03-14T06:54:32;98307.89;;;10.28;90.87
54369;BME280;40266;52.434;17.056;2023-03-14T06:57:17;98314.46;;;10.33;90.53
54369;BME280;40266;52.434;17.056;2023-03-14T07:00:01;98318.24;;;10.40;90.64
54369;BME280;40266;52.434;17.056;2023-03-14T07:02:45;98311.04;;;10.48;90.34
54369;BME280;40266;52.434;17.056;2023-03-14T07:05:40;98311.45;;;10.56;90.22
54369;BME280;40266;52.434;17.056;2023-03-14T07:08:26;98312.06;;;10.64;90.28
54369;BME280;40266;52.434;17.056;2023-03-14T07:11:10;98306.64;;;10.70;90.09
54369;BME280;40266;52.434;17.056;2023-03-14T07:13:55;98308.05;;;10.76;89.56
54369;BME280;40266;52.434;17.056;2023-03-14T07:16:38;98298.39;;;10.81;89.75
54369;BME280;40266;52.434;17.056;2023-03-14T07:19:24;98307.59;;;10.85;89.53
54369;BME280;40266;52.434;17.056;2023-03-14T07:22:08;98309.92;;;10.90;89.42
54369;BME280;40266;52.434;17.056;2023-03-14T07:24:52;98302.66;;;10.95;89.34
54369;BME280;40266;52.434;17.056;2023-03-14T07:27:38;98308.77;;;11.01;89.12
54369;BME280;40266;52.434;17.056;2023-03-14T07:30:22;98310.50;;;11.08;89.04
54369;BME280;40266;52.434;17.056;2023-03-14T07:33:06;98301.36;;;11.12;88.90
54369;BME280;40266;52.434;17.056;2023-03-14T07:35:53;98299.05;;;11.15;88.55
54369;BME280;40266;52.434;17.056;2023-03-14T07:38:38;98304.85;;;11.18;88.62
54369;BME280;40266;52.434;17.056;2023-03-14T07:41:31;98298.83;;;11.22;88.67
54369;BME280;40266;52.434;17.056;2023-03-14T07:44:34;98291.97;;;11.26;87.81
54369;BME280;40266;52.434;17.056;2023-03-14T07:47:18;98300.23;;;11.28;87.91
54369;BME280;40266;52.434;17.056;2023-03-14T07:50:07;98305.30;;;11.31;87.73
54369;BME280;40266;52.434;17.056;2023-03-14T07:52:51;98309.01;;;11.34;87.40
54369;BME280;40266;52.434;17.056;2023-03-14T07:55:35;98310.08;;;11.36;87.38
54369;BME280;40266;52.434;17.056;2023-03-14T07:58:20;98315.34;;;11.42;87.26
54369;BME280;40266;52.434;17.056;2023-03-14T08:01:05;98317.89;;;11.49;87.52
54369;BME280;40266;52.434;17.056;2023-03-14T08:03:49;98305.55;;;11.57;87.17
54369;BME280;40266;52.434;17.056;2023-03-14T08:06:35;98307.66;;;11.66;86.77
54369;BME280;40266;52.434;17.056;2023-03-14T08:09:19;98309.25;;;11.74;86.88
54369;BME280;40266;52.434;17.056;2023-03-14T08:12:03;98304.91;;;11.82;86.81
54369;BME280;40266;52.434;17.056;2023-03-14T08:14:46;98300.08;;;11.90;86.57
54369;BME280;40266;52.434;17.056;2023-03-14T08:17:29;98308.08;;;11.97;86.08
54369;BME280;40266;52.434;17.056;2023-03-14T08:20:14;98318.46;;;12.11;85.78
54369;BME280;40266;52.434;17.056;2023-03-14T08:23:01;98319.87;;;12.36;84.62
54369;BME280;40266;52.434;17.056;2023-03-14T08:25:45;98333.89;;;12.44;84.47
54369;BME280;40266;52.434;17.056;2023-03-14T08:28:29;98348.14;;;12.54;84.21
54369;BME280;40266;52.434;17.056;2023-03-14T08:31:15;98340.16;;;12.64;83.89
54369;BME280;40266;52.434;17.056;2023-03-14T08:33:59;98339.73;;;12.73;83.87
54369;BME280;40266;52.434;17.056;2023-03-14T08:36:43;98335.12;;;12.91;82.93
54369;BME280;40266;52.434;17.056;2023-03-14T08:39:27;98332.44;;;13.03;82.01
54369;BME280;40266;52.434;17.056;2023-03-14T08:42:11;98326.71;;;13.07;81.56
54369;BME280;40266;52.434;17.056;2023-03-14T08:44:55;98323.40;;;13.09;80.60
54369;BME280;40266;52.434;17.056;2023-03-14T08:47:39;98321.25;;;13.10;80.86
54369;BME280;40266;52.434;17.056;2023-03-14T08:50:23;98325.16;;;13.13;80.52
54369;BME280;40266;52.434;17.056;2023-03-14T08:53:07;98313.73;;;13.15;80.17
54369;BME280;40266;52.434;17.056;2023-03-14T08:55:53;98312.29;;;13.21;80.32
54369;BME280;40266;52.434;17.056;2023-03-14T08:58:37;98310.96;;;13.34;79.26
54369;BME280;40266;52.434;17.056;2023-03-14T09:01:21;98321.16;;;13.47;78.78
54369;BME280;40266;52.434;17.056;2023-03-14T09:04:07;98326.63;;;13.57;78.53
54369;BME280;40266;52.434;17.056;2023-03-14T09:06:51;98318.44;;;13.64;77.75
54369;BME280;40266;52.434;17.056;2023-03-14T09:09:36;98329.97;;;13.67;77.75
54369;BME280;40266;52.434;17.056;2023-03-14T09:12:21;98339.37;;;13.68;77.10
54369;BME280;40266;52.434;17.056;2023-03-14T09:15:05;98333.54;;;13.66;77.24
54369;BME280;40266;52.434;17.056;2023-03-14T09:17:50;98334.98;;;13.63;77.25
54369;BME280;40266;52.434;17.056;2023-03-14T09:20:33;98333.89;;;13.59;76.89
54369;BME280;40266;52.434;17.056;2023-03-14T09:23:18;98334.13;;;13.58;76.93
54369;BME280;40266;52.434;17.056;2023-03-14T09:26:01;98332.60;;;13.57;75.51
54369;BME280;40266;52.434;17.056;2023-03-14T09:28:45;98333.09;;;13.55;75.75
54369;BME280;40266;52.434;17.056;2023-03-14T09:31:29;98333.76;;;13.53;76.10
54369;BME280;40266;52.434;17.056;2023-03-14T09:34:13;98334.98;;;13.53;76.07
54369;BME280;40266;52.434;17.056;2023-03-14T09:36:56;98333.81;;;13.54;76.21
54369;BME280;40266;52.434;17.056;2023-03-14T09:39:40;98337.90;;;13.56;75.19
54369;BME280;40266;52.434;17.056;2023-03-14T09:42:26;98331.85;;;13.52;74.87
54369;BME280;40266;52.434;17.056;2023-03-14T09:45:38;98343.40;;;13.53;75.53
54369;BME280;40266;52.434;17.056;2023-03-14T09:48:29;98341.88;;;13.49;74.98
54369;BME280;40266;52.434;17.056;2023-03-14T09:51:17;98344.34;;;13.49;75.52
54369;BME280;40266;52.434;17.056;2023-03-14T09:54:01;98342.49;;;13.50;75.40
54369;BME280;40266;52.434;17.056;2023-03-14T09:56:45;98340.49;;;13.54;75.86
54369;BME280;40266;52.434;17.056;2023-03-14T09:59:29;98337.70;;;13.59;75.99
54369;BME280;40266;52.434;17.056;2023-03-14T10:02:16;98340.80;;;13.65;75.69
54369;BME280;40266;52.434;17.056;2023-03-14T10:05:07;98337.27;;;13.68;75.07
54369;BME280;40266;52.434;17.056;2023-03-14T10:07:57;98329.39;;;13.68;75.10
54369;BME280;40266;52.434;17.056;2023-03-14T10:10:42;98330.53;;;13.69;74.59
54369;BME280;40266;52.434;17.056;2023-03-14T10:13:27;98332.23;;;13.70;74.95
54369;BME280;40266;52.434;17.056;2023-03-14T10:16:12;98332.81;;;13.72;74.84
54369;BME280;40266;52.434;17.056;2023-03-14T10:19:03;98334.14;;;13.73;74.63
54369;BME280;40266;52.434;17.056;2023-03-14T10:21:53;98325.38;;;13.73;74.38
54369;BME280;40266;52.434;17.056;2023-03-14T10:24:45;98327.27;;;13.73;74.19
54369;BME280;40266;52.434;17.056;2023-03-14T10:27:32;98325.02;;;13.76;73.80
54369;BME280;40266;52.434;17.056;2023-03-14T10:30:48;98329.70;;;13.76;73.52
54369;BME280;40266;52.434;17.056;2023-03-14T10:33:34;98328.68;;;13.76;73.77
54369;BME280;40266;52.434;17.056;2023-03-14T10:36:21;98327.38;;;13.82;74.57
54369;BME280;40266;52.434;17.056;2023-03-14T10:39:31;98328.71;;;13.91;73.46
54369;BME280;40266;52.434;17.056;2023-03-14T10:42:39;98327.02;;;13.98;73.17
54369;BME280;40266;52.434;17.056;2023-03-14T10:45:35;98320.60;;;14.07;73.58
54369;BME280;40266;52.434;17.056;2023-03-14T10:51:39;98338.39;;;14.26;72.84
54369;BME280;40266;52.434;17.056;2023-03-14T10:54:23;98335.05;;;14.36;72.67
54369;BME280;40266;52.434;17.056;2023-03-14T10:57:07;98339.36;;;14.40;71.80
54369;BME280;40266;52.434;17.056;2023-03-14T10:59:52;98336.55;;;14.32;71.40
54369;BME280;40266;52.434;17.056;2023-03-14T11:08:42;98331.55;;;14.26;71.78
54369;BME280;40266;52.434;17.056;2023-03-14T11:11:30;98334.06;;;14.21;71.70
54369;BME280;40266;52.434;17.056;2023-03-14T11:14:29;98329.14;;;14.15;71.70
54369;BME280;40266;52.434;17.056;2023-03-14T11:23:16;98331.63;;;14.05;71.77
54369;BME280;40266;52.434;17.056;2023-03-14T11:26:25;98336.93;;;14.07;72.04
54369;BME280;40266;52.434;17.056;2023-03-14T11:29:25;98329.47;;;14.13;72.27
54369;BME280;40266;52.434;17.056;2023-03-14T11:35:34;98320.18;;;14.45;72.58
54369;BME280;40266;52.434;17.056;2023-03-14T11:41:18;98324.48;;;14.63;72.53
54369;BME280;40266;52.434;17.056;2023-03-14T11:44:27;98319.59;;;14.72;71.76
54369;BME280;40266;52.434;17.056;2023-03-14T11:47:20;98321.73;;;14.71;71.61
54369;BME280;40266;52.434;17.056;2023-03-14T11:53:09;98325.20;;;14.79;71.64
54369;BME280;40266;52.434;17.056;2023-03-14T11:55:56;98319.74;;;14.89;71.79
54369;BME280;40266;52.434;17.056;2023-03-14T11:58:53;98313.11;;;14.93;71.52
54369;BME280;40266;52.434;17.056;2023-03-14T12:02:05;98310.67;;;15.00;70.60
54369;BME280;40266;52.434;17.056;2023-03-14T12:10:58;98291.84;;;15.22;70.73
54369;BME280;40266;52.434;17.056;2023-03-14T12:13:47;98289.77;;;15.21;70.20
54369;BME280;40266;52.434;17.056;2023-03-14T12:16:36;98290.02;;;15.16;69.38
54369;BME280;40266;52.434;17.056;2023-03-14T12:19:28;98283.91;;;15.01;69.74
54369;BME280;40266;52.434;17.056;2023-03-14T12:22:43;98278.10;;;14.86;69.59
54369;BME280;40266;52.434;17.056;2023-03-14T12:25:30;98278.00;;;14.68;69.53
54369;BME280;40266;52.434;17.056;2023-03-14T12:28:30;98275.59;;;14.61;69.81
54369;BME280;40266;52.434;17.056;2023-03-14T12:37:40;98278.48;;;14.69;69.63
54369;BME280;40266;52.434;17.056;2023-03-14T12:40:33;98280.30;;;14.78;69.20
54369;BME280;40266;52.434;17.056;2023-03-14T12:43:27;98281.36;;;14.80;67.76
54369;BME280;40266;52.434;17.056;2023-03-14T12:46:22;98279.75;;;14.81;68.27
54369;BME280;40266;52.434;17.056;2023-03-14T12:49:08;98280.69;;;14.85;67.89
54369;BME280;40266;52.434;17.056;2023-03-14T12:52:01;98279.92;;;14.90;67.79
54369;BME280;40266;52.434;17.056;2023-03-14T12:58:25;98281.73;;;14.90;66.55
54369;BME280;40266;52.434;17.056;2023-03-14T13:01:19;98284.35;;;14.88;66.52
54369;BME280;40266;52.434;17.056;2023-03-14T13:04:11;98284.98;;;14.86;65.62
54369;BME280;40266;52.434;17.056;2023-03-14T13:06:59;98282.28;;;14.87;65.02
54369;BME280;40266;52.434;17.056;2023-03-14T13:15:47;98284.98;;;14.91;64.23
54369;BME280;40266;52.434;17.056;2023-03-14T13:18:37;98282.25;;;14.94;64.10
54369;BME280;40266;52.434;17.056;2023-03-14T13:21:24;98287.34;;;15.04;63.83
54369;BME280;40266;52.434;17.056;2023-03-14T13:24:22;98287.46;;;15.17;62.68
54369;BME280;40266;52.434;17.056;2023-03-14T13:27:16;98277.13;;;15.28;61.53
54369;BME280;40266;52.434;17.056;2023-03-14T13:30:23;98280.34;;;15.34;61.74
54369;BME280;40266;52.434;17.056;2023-03-14T13:33:13;98285.19;;;15.35;60.90
54369;BME280;40266;52.434;17.056;2023-03-14T13:35:59;98284.29;;;15.33;60.77
54369;BME280;40266;52.434;17.056;2023-03-14T13:38:43;98284.58;;;15.27;60.58
54369;BME280;40266;52.434;17.056;2023-03-14T13:41:27;98286.45;;;15.26;61.34
54369;BME280;40266;52.434;17.056;2023-03-14T13:44:17;98277.58;;;15.25;61.15
54369;BME280;40266;52.434;17.056;2023-03-14T13:47:05;98281.86;;;15.19;60.87
54369;BME280;40266;52.434;17.056;2023-03-14T13:49:49;98283.23;;;15.12;61.29
54369;BME280;40266;52.434;17.056;2023-03-14T13:52:38;98280.11;;;15.05;61.11
54369;BME280;40266;52.434;17.056;2023-03-14T13:55:28;98282.11;;;14.92;61.11
54369;BME280;40266;52.434;17.056;2023-03-14T13:58:33;98278.70;;;14.81;60.95
54369;BME280;40266;52.434;17.056;2023-03-14T14:01:20;98277.60;;;14.69;61.30
54369;BME280;40266;52.434;17.056;2023-03-14T14:04:15;98274.87;;;14.61;61.26
54369;BME280;40266;52.434;17.056;2023-03-14T14:07:00;98278.88;;;14.54;61.66
54369;BME280;40266;52.434;17.056;2023-03-14T14:09:50;98282.48;;;14.49;62.04
54369;BME280;40266;52.434;17.056;2023-03-14T14:12:39;98280.38;;;14.45;62.35
54369;BME280;40266;52.434;17.056;2023-03-14T14:15:28;98281.69;;;14.39;62.58
54369;BME280;40266;52.434;17.056;2023-03-14T14:18:17;98278.36;;;14.33;62.30
54369;BME280;40266;52.434;17.056;2023-03-14T14:21:02;98276.18;;;14.27;62.41
54369;BME280;40266;52.434;17.056;2023-03-14T14:23:46;98270.48;;;14.21;62.68
54369;BME280;40266;52.434;17.056;2023-03-14T14:26:31;98270.06;;;14.20;62.59
54369;BME280;40266;52.434;17.056;2023-03-14T14:29:31;98264.67;;;14.16;62.49
54369;BME280;40266;52.434;17.056;2023-03-14T14:32:15;98263.93;;;14.12;62.85
54369;BME280;40266;52.434;17.056;2023-03-14T14:35:00;98263.77;;;14.11;62.97
54369;BME280;40266;52.434;17.056;2023-03-14T14:37:44;98271.29;;;14.09;62.90
54369;BME280;40266;52.434;17.056;2023-03-14T14:40:30;98274.20;;;14.06;63.05
54369;BME280;40266;52.434;17.056;2023-03-14T14:43:21;98275.02;;;14.01;63.32
54369;BME280;40266;52.434;17.056;2023-03-14T14:46:06;98279.09;;;13.98;63.26
54369;BME280;40266;52.434;17.056;2023-03-14T14:48:55;98278.54;;;13.91;62.61
54369;BME280;40266;52.434;17.056;2023-03-14T14:51:43;98280.98;;;13.83;62.79
54369;BME280;40266;52.434;17.056;2023-03-14T14:54:38;98277.35;;;13.75;62.69
54369;BME280;40266;52.434;17.056;2023-03-14T14:57:30;98283.38;;;13.69;63.07
54369;BME280;40266;52.434;17.056;2023-03-14T15:00:23;98287.78;;;13.58;62.98
54369;BME280;40266;52.434;17.056;2023-03-14T15:03:13;98293.77;;;13.48;63.50
54369;BME280;40266;52.434;17.056;2023-03-14T15:05:59;98287.32;;;13.34;64.32
54369;BME280;40266;52.434;17.056;2023-03-14T15:08:45;98284.95;;;13.21;65.20
54369;BME280;40266;52.434;17.056;2023-03-14T15:11:29;98280.05;;;13.13;65.92
54369;BME280;40266;52.434;17.056;2023-03-14T15:14:13;98278.63;;;13.06;66.32
54369;BME280;40266;52.434;17.056;2023-03-14T15:16:57;98281.34;;;13.02;66.81
54369;BME280;40266;52.434;17.056;2023-03-14T15:19:41;98282.68;;;13.00;66.97
54369;BME280;40266;52.434;17.056;2023-03-14T15:22:25;98285.30;;;12.98;67.32
54369;BME280;40266;52.434;17.056;2023-03-14T15:25:08;98282.13;;;12.92;67.60
54369;BME280;40266;52.434;17.056;2023-03-14T15:28:22;98282.23;;;12.85;67.87
54369;BME280;40266;52.434;17.056;2023-03-14T15:31:10;98279.77;;;12.80;68.33
54369;BME280;40266;52.434;17.056;2023-03-14T15:33:55;98277.42;;;12.78;68.71
54369;BME280;40266;52.434;17.056;2023-03-14T15:36:39;98274.72;;;12.77;69.03
54369;BME280;40266;52.434;17.056;2023-03-14T15:39:23;98269.01;;;12.76;69.49
54369;BME280;40266;52.434;17.056;2023-03-14T15:42:07;98261.31;;;12.76;69.58
54369;BME280;40266;52.434;17.056;2023-03-14T15:44:51;98264.16;;;12.78;69.70